Bjelac, Босна и Херцеговина

21. јануар 2019, 18:32 CET (GMT +0100)
IDALMACI24 | | Change Station

Надм.вис. 118 ft 42.64 °N, 18.19 °E | Updated 1 minute ago

Ведро
Ведро
47.1 °F
Субјективни осећај 47 °F
С
2
Ветар Променљив Ветар из ССИ
Gusts 2.0 mph

Данас
Макс. -- | Мин. -- °F
--% Вероватноћа за падавине
Јуче
Макс. -- | Мин. -- °F
Precip. -- инч
Притисак 29.92 инч
Видљивост -9999.0 миља
Облаци
Субјективни осећај 47 °F
Тачка росе 39 °F
Влажност ваздуха 74%
Киша 0.00 инч
Висина снега Није доступно.
7:11 AM 4:45 PM
Пун, 100% visible
METAR LDDU 211700Z 08007KT CAVOK 10/04 Q1013 NOSIG
Притисак 29.92 инч
Видљивост -9999.0 миља
Облаци
Субјективни осећај 47 °F
Тачка росе 39 °F
Влажност ваздуха 74%
Киша 0.00 инч
Висина снега Није доступно.
7:11 AM 4:45 PM
Пун, 100% visible
METAR LDDU 211700Z 08007KT CAVOK 10/04 Q1013 NOSIG

Get Severe Weather Alerts

Thanks for signing up!

Be on the lookout for a verification email in your inbox.

You'll start receiving the daily forecast at 6 AM.

×

10-Day Weather Forecast

No radar image for this location.
×

Almanac

Астрономија

Jan. 21, 2019 Излазак Залазак
Тренутно време
Цивилни сумрак
Наутички сумрак
Астрономски сумрак
Месец
Трајање видљиве светлости
Обданица
Tomorrow will be .
, % of the Moon is Illuminated

Данашњи екстреми

Највише Најниже

Community

Category 6

Welcome to Category 6. This is the collective home for Weather Underground's featured writeups by Dr. Jeff Masters (right), Bob Henson (left), Chris Burt, and other regular contributors.

Nearby

Квалитет ваздуха (AQ)

  Квалитет ваздуха (AQ) Индекс AQ Загађење
Not available.

Висина снега

станица Висина снега Висина

Земљотрес

Место Удаљеност Магнитуда Време и датум
Минимална магнитуда која се објављује је 2.5

Темп. воде у приобаљу

Место Температура

Stations

Оближње метео-станице

Локација станице Темп. Субјективни осећај Тачка росе Влажност ваздуха Ветар Precip. Надм.вис. Ажурирано Тип